sensor_id;sensor_type;location;lat;lon;timestamp;pressure;altitude;pressure_sealevel;temperature;humidity
4392;BME280;2210;51.938;8.488;2023-03-18T00:02:15;99831.41;;;10.71;100.00
4392;BME280;2210;51.938;8.488;2023-03-18T00:06:17;99825.19;;;10.59;100.00
4392;BME280;2210;51.938;8.488;2023-03-18T00:10:17;99834.91;;;10.44;100.00
4392;BME280;2210;51.938;8.488;2023-03-18T00:14:28;99829.41;;;10.27;100.00
4392;BME280;2210;51.938;8.488;2023-03-18T00:18:29;99829.66;;;10.26;100.00
4392;BME280;2210;51.938;8.488;2023-03-18T00:22:32;99835.00;;;10.16;100.00
4392;BME280;2210;51.938;8.488;2023-03-18T00:26:36;99833.31;;;10.15;100.00
4392;BME280;2210;51.938;8.488;2023-03-18T00:30:37;99827.81;;;10.15;100.00
4392;BME280;2210;51.938;8.488;2023-03-18T00:34:38;99835.50;;;10.29;100.00
4392;BME280;2210;51.938;8.488;2023-03-18T00:38:44;99837.75;;;10.16;100.00
4392;BME280;2210;51.938;8.488;2023-03-18T00:42:45;99837.84;;;10.04;100.00
4392;BME280;2210;51.938;8.488;2023-03-18T00:47:06;99836.06;;;10.15;100.00
4392;BME280;2210;51.938;8.488;2023-03-18T00:51:06;99837.44;;;9.95;100.00
4392;BME280;2210;51.938;8.488;2023-03-18T00:55:07;99843.28;;;9.99;100.00
4392;BME280;2210;51.938;8.488;2023-03-18T00:59:08;99834.84;;;10.05;100.00
4392;BME280;2210;51.938;8.488;2023-03-18T01:03:08;99831.50;;;10.03;100.00
4392;BME280;2210;51.938;8.488;2023-03-18T01:07:08;99835.09;;;10.04;100.00
4392;BME280;2210;51.938;8.488;2023-03-18T01:11:11;99833.34;;;9.98;100.00
4392;BME280;2210;51.938;8.488;2023-03-18T01:15:18;99832.84;;;10.01;100.00
4392;BME280;2210;51.938;8.488;2023-03-18T01:19:22;99827.59;;;9.99;100.00
4392;BME280;2210;51.938;8.488;2023-03-18T01:23:26;99816.47;;;9.94;100.00
4392;BME280;2210;51.938;8.488;2023-03-18T01:27:26;99807.66;;;9.92;100.00
4392;BME280;2210;51.938;8.488;2023-03-18T01:31:27;99817.59;;;9.93;100.00
4392;BME280;2210;51.938;8.488;2023-03-18T01:35:30;99821.97;;;9.94;100.00
4392;BME280;2210;51.938;8.488;2023-03-18T01:39:34;99826.81;;;10.21;100.00
4392;BME280;2210;51.938;8.488;2023-03-18T01:43:38;99820.22;;;10.22;100.00
4392;BME280;2210;51.938;8.488;2023-03-18T01:47:48;99814.25;;;10.08;100.00
4392;BME280;2210;51.938;8.488;2023-03-18T01:52:09;99813.00;;;9.99;100.00
4392;BME280;2210;51.938;8.488;2023-03-18T01:56:15;99816.47;;;9.94;100.00
4392;BME280;2210;51.938;8.488;2023-03-18T02:00:17;99809.97;;;9.83;100.00
4392;BME280;2210;51.938;8.488;2023-03-18T02:04:22;99817.91;;;9.79;100.00
4392;BME280;2210;51.938;8.488;2023-03-18T02:08:31;99809.66;;;9.79;100.00
4392;BME280;2210;51.938;8.488;2023-03-18T02:12:35;99821.84;;;9.84;100.00
4392;BME280;2210;51.938;8.488;2023-03-18T02:16:47;99814.66;;;9.83;100.00
4392;BME280;2210;51.938;8.488;2023-03-18T02:21:21;99813.50;;;9.78;100.00
4392;BME280;2210;51.938;8.488;2023-03-18T02:25:40;99803.31;;;9.79;100.00
4392;BME280;2210;51.938;8.488;2023-03-18T02:29:43;99812.66;;;9.78;100.00
4392;BME280;2210;51.938;8.488;2023-03-18T02:33:45;99806.81;;;9.74;100.00
4392;BME280;2210;51.938;8.488;2023-03-18T02:37:45;99815.06;;;9.74;100.00
4392;BME280;2210;51.938;8.488;2023-03-18T02:41:46;99826.09;;;9.74;100.00
4392;BME280;2210;51.938;8.488;2023-03-18T02:50:23;99818.75;;;9.80;100.00
4392;BME280;2210;51.938;8.488;2023-03-18T02:54:27;99819.91;;;9.84;100.00
4392;BME280;2210;51.938;8.488;2023-03-18T02:58:30;99829.84;;;9.85;100.00
4392;BME280;2210;51.938;8.488;2023-03-18T03:02:37;99828.66;;;9.81;100.00
4392;BME280;2210;51.938;8.488;2023-03-18T03:06:38;99833.56;;;9.79;100.00
4392;BME280;2210;51.938;8.488;2023-03-18T03:10:39;99825.66;;;9.83;100.00
4392;BME280;2210;51.938;8.488;2023-03-18T03:14:40;99829.50;;;9.99;100.00
4392;BME280;2210;51.938;8.488;2023-03-18T03:18:41;99829.50;;;9.82;100.00
4392;BME280;2210;51.938;8.488;2023-03-18T03:22:42;99826.66;;;9.76;100.00
4392;BME280;2210;51.938;8.488;2023-03-18T03:26:42;99835.44;;;9.90;100.00
4392;BME280;2210;51.938;8.488;2023-03-18T03:30:43;99833.16;;;9.70;100.00
4392;BME280;2210;51.938;8.488;2023-03-18T03:34:52;99839.56;;;9.59;100.00
4392;BME280;2210;51.938;8.488;2023-03-18T03:38:52;99831.81;;;9.56;100.00
4392;BME280;2210;51.938;8.488;2023-03-18T03:42:56;99828.22;;;9.55;100.00
4392;BME280;2210;51.938;8.488;2023-03-18T03:47:02;99821.22;;;9.48;100.00
4392;BME280;2210;51.938;8.488;2023-03-18T03:51:03;99824.06;;;9.53;100.00
4392;BME280;2210;51.938;8.488;2023-03-18T03:55:08;99831.03;;;9.43;100.00
4392;BME280;2210;51.938;8.488;2023-03-18T03:59:12;99840.28;;;9.37;100.00
4392;BME280;2210;51.938;8.488;2023-03-18T04:03:15;99845.97;;;9.48;100.00
4392;BME280;2210;51.938;8.488;2023-03-18T04:07:19;99835.63;;;9.38;100.00
4392;BME280;2210;51.938;8.488;2023-03-18T04:11:19;99840.38;;;9.14;100.00
4392;BME280;2210;51.938;8.488;2023-03-18T04:15:20;99839.19;;;9.09;100.00
4392;BME280;2210;51.938;8.488;2023-03-18T04:19:21;99854.03;;;9.08;100.00
4392;BME280;2210;51.938;8.488;2023-03-18T04:23:24;99847.31;;;9.16;100.00
4392;BME280;2210;51.938;8.488;2023-03-18T04:27:28;99857.69;;;9.14;100.00
4392;BME280;2210;51.938;8.488;2023-03-18T04:31:29;99877.69;;;9.09;100.00
4392;BME280;2210;51.938;8.488;2023-03-18T04:35:30;99882.06;;;9.22;100.00
4392;BME280;2210;51.938;8.488;2023-03-18T04:39:31;99877.41;;;9.23;100.00
4392;BME280;2210;51.938;8.488;2023-03-18T04:43:31;99882.81;;;9.18;100.00
4392;BME280;2210;51.938;8.488;2023-03-18T04:47:34;99876.03;;;9.08;100.00
4392;BME280;2210;51.938;8.488;2023-03-18T04:51:41;99869.56;;;9.15;100.00
4392;BME280;2210;51.938;8.488;2023-03-18T04:55:50;99875.91;;;9.03;100.00
4392;BME280;2210;51.938;8.488;2023-03-18T04:59:50;99870.91;;;9.00;100.00
4392;BME280;2210;51.938;8.488;2023-03-18T05:03:54;99883.84;;;8.88;100.00
4392;BME280;2210;51.938;8.488;2023-03-18T05:07:54;99883.47;;;8.96;100.00
4392;BME280;2210;51.938;8.488;2023-03-18T05:11:55;99887.78;;;8.80;100.00
4392;BME280;2210;51.938;8.488;2023-03-18T05:16:01;99898.22;;;8.66;100.00
4392;BME280;2210;51.938;8.488;2023-03-18T05:20:12;99893.09;;;8.58;100.00
4392;BME280;2210;51.938;8.488;2023-03-18T05:24:13;99896.53;;;8.41;100.00
4392;BME280;2210;51.938;8.488;2023-03-18T05:28:13;99892.84;;;8.48;100.00
4392;BME280;2210;51.938;8.488;2023-03-18T05:32:14;99903.09;;;8.40;100.00
4392;BME280;2210;51.938;8.488;2023-03-18T05:36:17;99890.19;;;8.29;100.00
4392;BME280;2210;51.938;8.488;2023-03-18T05:40:18;99891.75;;;8.25;100.00
4392;BME280;2210;51.938;8.488;2023-03-18T05:44:25;99897.59;;;8.17;100.00
4392;BME280;2210;51.938;8.488;2023-03-18T05:48:25;99893.88;;;8.11;100.00
4392;BME280;2210;51.938;8.488;2023-03-18T05:52:26;99906.88;;;8.04;100.00
4392;BME280;2210;51.938;8.488;2023-03-18T05:56:27;99913.91;;;8.00;100.00
4392;BME280;2210;51.938;8.488;2023-03-18T06:00:30;99920.13;;;7.95;100.00
4392;BME280;2210;51.938;8.488;2023-03-18T06:04:34;99925.00;;;7.93;100.00
4392;BME280;2210;51.938;8.488;2023-03-18T06:08:48;99931.34;;;7.93;100.00
4392;BME280;2210;51.938;8.488;2023-03-18T06:12:52;99931.91;;;7.96;100.00
4392;BME280;2210;51.938;8.488;2023-03-18T06:16:57;99934.44;;;7.97;100.00
4392;BME280;2210;51.938;8.488;2023-03-18T06:20:58;99932.31;;;8.11;100.00
4392;BME280;2210;51.938;8.488;2023-03-18T06:25:01;99936.13;;;8.22;100.00
4392;BME280;2210;51.938;8.488;2023-03-18T06:29:09;99940.63;;;8.47;100.00
4392;BME280;2210;51.938;8.488;2023-03-18T06:33:09;99943.84;;;8.91;100.00
4392;BME280;2210;51.938;8.488;2023-03-18T06:37:10;99943.44;;;9.11;100.00
4392;BME280;2210;51.938;8.488;2023-03-18T06:41:10;99944.75;;;9.20;100.00
4392;BME280;2210;51.938;8.488;2023-03-18T06:45:11;99952.97;;;9.32;100.00
4392;BME280;2210;51.938;8.488;2023-03-18T06:49:15;99949.84;;;9.40;100.00
4392;BME280;2210;51.938;8.488;2023-03-18T06:53:15;99948.84;;;9.47;100.00
4392;BME280;2210;51.938;8.488;2023-03-18T06:57:16;99950.28;;;9.49;100.00
4392;BME280;2210;51.938;8.488;2023-03-18T07:01:17;99957.81;;;9.54;100.00
4392;BME280;2210;51.938;8.488;2023-03-18T07:05:18;99961.84;;;9.63;100.00
4392;BME280;2210;51.938;8.488;2023-03-18T07:09:26;99954.31;;;9.87;100.00
4392;BME280;2210;51.938;8.488;2023-03-18T07:13:27;99955.53;;;10.08;100.00
4392;BME280;2210;51.938;8.488;2023-03-18T07:17:27;99953.94;;;10.12;100.00
4392;BME280;2210;51.938;8.488;2023-03-18T07:21:31;99965.16;;;10.23;100.00
4392;BME280;2210;51.938;8.488;2023-03-18T07:25:34;99971.59;;;10.28;100.00
4392;BME280;2210;51.938;8.488;2023-03-18T07:29:35;99977.53;;;10.37;100.00
4392;BME280;2210;51.938;8.488;2023-03-18T07:33:36;99984.81;;;10.43;100.00
4392;BME280;2210;51.938;8.488;2023-03-18T07:37:40;99997.31;;;10.51;100.00
4392;BME280;2210;51.938;8.488;2023-03-18T07:41:40;100000.00;;;10.63;100.00
4392;BME280;2210;51.938;8.488;2023-03-18T07:45:40;100005.69;;;10.73;100.00
4392;BME280;2210;51.938;8.488;2023-03-18T07:49:47;100002.00;;;10.85;100.00
4392;BME280;2210;51.938;8.488;2023-03-18T07:53:50;100013.75;;;10.97;100.00
4392;BME280;2210;51.938;8.488;2023-03-18T07:57:53;100020.00;;;11.09;100.00
4392;BME280;2210;51.938;8.488;2023-03-18T08:01:54;100020.81;;;11.27;100.00
4392;BME280;2210;51.938;8.488;2023-03-18T08:05:57;100024.25;;;11.34;100.00
4392;BME280;2210;51.938;8.488;2023-03-18T08:09:58;100025.44;;;11.43;100.00
4392;BME280;2210;51.938;8.488;2023-03-18T08:13:58;100028.81;;;11.45;100.00
4392;BME280;2210;51.938;8.488;2023-03-18T08:17:58;100029.38;;;11.47;100.00
4392;BME280;2210;51.938;8.488;2023-03-18T08:21:59;100033.31;;;11.52;100.00
4392;BME280;2210;51.938;8.488;2023-03-18T08:25:59;100045.75;;;11.54;100.00
4392;BME280;2210;51.938;8.488;2023-03-18T08:29:59;100037.16;;;11.51;100.00
4392;BME280;2210;51.938;8.488;2023-03-18T08:34:06;100046.59;;;11.55;100.00
4392;BME280;2210;51.938;8.488;2023-03-18T08:38:06;100043.97;;;11.65;100.00
4392;BME280;2210;51.938;8.488;2023-03-18T08:42:06;100047.88;;;11.69;100.00
4392;BME280;2210;51.938;8.488;2023-03-18T08:46:07;100050.78;;;11.79;100.00
4392;BME280;2210;51.938;8.488;2023-03-18T08:50:08;100062.44;;;11.87;100.00
4392;BME280;2210;51.938;8.488;2023-03-18T08:54:11;100061.28;;;12.00;100.00
4392;BME280;2210;51.938;8.488;2023-03-18T08:58:12;100059.91;;;12.02;100.00
4392;BME280;2210;51.938;8.488;2023-03-18T09:02:14;100063.25;;;12.04;100.00
4392;BME280;2210;51.938;8.488;2023-03-18T09:06:17;100067.63;;;12.00;100.00
4392;BME280;2210;51.938;8.488;2023-03-18T09:10:21;100069.88;;;12.03;100.00
4392;BME280;2210;51.938;8.488;2023-03-18T09:14:24;100070.97;;;12.02;100.00
4392;BME280;2210;51.938;8.488;2023-03-18T09:18:25;100076.50;;;12.02;100.00
4392;BME280;2210;51.938;8.488;2023-03-18T09:22:25;100071.78;;;12.03;100.00
4392;BME280;2210;51.938;8.488;2023-03-18T09:26:26;100072.69;;;12.08;100.00
4392;BME280;2210;51.938;8.488;2023-03-18T09:30:28;100067.84;;;12.21;100.00
4392;BME280;2210;51.938;8.488;2023-03-18T09:34:29;100077.00;;;12.48;100.00
4392;BME280;2210;51.938;8.488;2023-03-18T09:38:29;100075.69;;;12.56;100.00
4392;BME280;2210;51.938;8.488;2023-03-18T09:42:51;100089.34;;;12.68;100.00
4392;BME280;2210;51.938;8.488;2023-03-18T09:56:30;100091.50;;;13.31;100.00
4392;BME280;2210;51.938;8.488;2023-03-18T10:00:36;100094.75;;;13.18;100.00
4392;BME280;2210;51.938;8.488;2023-03-18T10:04:44;100099.09;;;13.08;100.00
4392;BME280;2210;51.938;8.488;2023-03-18T10:13:20;100111.91;;;13.20;100.00
4392;BME280;2210;51.938;8.488;2023-03-18T10:17:30;100103.69;;;13.30;100.00
4392;BME280;2210;51.938;8.488;2023-03-18T10:21:35;100114.19;;;13.28;100.00
4392;BME280;2210;51.938;8.488;2023-03-18T10:25:52;100115.38;;;13.37;100.00
4392;BME280;2210;51.938;8.488;2023-03-18T10:29:57;100115.16;;;13.44;100.00
4392;BME280;2210;51.938;8.488;2023-03-18T10:34:09;100117.69;;;13.51;100.00
4392;BME280;2210;51.938;8.488;2023-03-18T10:38:28;100117.22;;;13.64;100.00
4392;BME280;2210;51.938;8.488;2023-03-18T10:42:36;100120.38;;;13.83;100.00
4392;BME280;2210;51.938;8.488;2023-03-18T10:46:37;100111.41;;;14.29;100.00
4392;BME280;2210;51.938;8.488;2023-03-18T10:54:55;100118.13;;;14.54;97.35
4392;BME280;2210;51.938;8.488;2023-03-18T10:58:57;100121.53;;;14.66;95.07
4392;BME280;2210;51.938;8.488;2023-03-18T11:02:58;100113.16;;;14.50;93.99
4392;BME280;2210;51.938;8.488;2023-03-18T11:07:00;100115.38;;;14.54;97.29
4392;BME280;2210;51.938;8.488;2023-03-18T11:11:21;100118.13;;;14.43;93.71
4392;BME280;2210;51.938;8.488;2023-03-18T11:15:22;100112.53;;;14.33;93.60
4392;BME280;2210;51.938;8.488;2023-03-18T11:23:34;100112.66;;;14.64;92.57
4392;BME280;2210;51.938;8.488;2023-03-18T11:27:49;100116.53;;;14.83;89.83
4392;BME280;2210;51.938;8.488;2023-03-18T11:31:55;100110.16;;;15.24;89.70
4392;BME280;2210;51.938;8.488;2023-03-18T11:36:05;100105.44;;;15.35;84.02
4392;BME280;2210;51.938;8.488;2023-03-18T11:40:16;100100.47;;;15.11;82.58
4392;BME280;2210;51.938;8.488;2023-03-18T11:44:23;100106.56;;;15.18;81.76
4392;BME280;2210;51.938;8.488;2023-03-18T11:48:31;100102.38;;;15.42;84.68
4392;BME280;2210;51.938;8.488;2023-03-18T11:52:42;100105.94;;;15.63;82.68
4392;BME280;2210;51.938;8.488;2023-03-18T11:56:54;100100.13;;;15.59;81.49
4392;BME280;2210;51.938;8.488;2023-03-18T12:09:52;100103.13;;;15.78;78.84
4392;BME280;2210;51.938;8.488;2023-03-18T12:14:03;100099.31;;;15.38;79.10
4392;BME280;2210;51.938;8.488;2023-03-18T12:23:19;100096.53;;;15.43;81.26
4392;BME280;2210;51.938;8.488;2023-03-18T12:27:51;100094.31;;;15.35;79.81
4392;BME280;2210;51.938;8.488;2023-03-18T12:41:22;100088.19;;;15.59;80.08
4392;BME280;2210;51.938;8.488;2023-03-18T12:45:37;100084.53;;;15.63;77.42
4392;BME280;2210;51.938;8.488;2023-03-18T12:49:43;100071.69;;;15.88;76.13
4392;BME280;2210;51.938;8.488;2023-03-18T12:53:49;100068.56;;;16.05;76.33
4392;BME280;2210;51.938;8.488;2023-03-18T12:57:57;100066.81;;;16.19;73.62
4392;BME280;2210;51.938;8.488;2023-03-18T13:06:54;100066.88;;;16.09;74.24
4392;BME280;2210;51.938;8.488;2023-03-18T13:11:40;100073.34;;;15.99;73.63
4392;BME280;2210;51.938;8.488;2023-03-18T13:15:50;100072.44;;;16.09;72.20
4392;BME280;2210;51.938;8.488;2023-03-18T13:19:59;100064.09;;;16.09;72.78
4392;BME280;2210;51.938;8.488;2023-03-18T13:28:32;100068.94;;;15.78;74.29
4392;BME280;2210;51.938;8.488;2023-03-18T13:33:06;100067.81;;;15.89;72.95
4392;BME280;2210;51.938;8.488;2023-03-18T13:41:48;100070.84;;;15.93;72.47
4392;BME280;2210;51.938;8.488;2023-03-18T13:45:59;100070.50;;;16.10;73.15
4392;BME280;2210;51.938;8.488;2023-03-18T13:50:32;100069.94;;;16.13;71.53
4392;BME280;2210;51.938;8.488;2023-03-18T13:54:36;100063.53;;;16.07;71.72
4392;BME280;2210;51.938;8.488;2023-03-18T13:58:45;100068.88;;;16.04;71.25
4392;BME280;2210;51.938;8.488;2023-03-18T14:03:51;100076.31;;;16.13;70.87
4392;BME280;2210;51.938;8.488;2023-03-18T14:07:53;100068.59;;;16.00;70.18
4392;BME280;2210;51.938;8.488;2023-03-18T14:12:01;100072.19;;;16.06;70.52
4392;BME280;2210;51.938;8.488;2023-03-18T14:16:13;100066.09;;;15.98;69.46
4392;BME280;2210;51.938;8.488;2023-03-18T14:20:21;100065.31;;;15.88;69.81
4392;BME280;2210;51.938;8.488;2023-03-18T14:24:24;100057.78;;;15.93;71.79
4392;BME280;2210;51.938;8.488;2023-03-18T14:28:28;100056.16;;;15.87;70.92
4392;BME280;2210;51.938;8.488;2023-03-18T14:40:59;100039.78;;;15.80;70.91
4392;BME280;2210;51.938;8.488;2023-03-18T14:45:13;100035.88;;;15.81;70.91
4392;BME280;2210;51.938;8.488;2023-03-18T14:49:29;100035.59;;;15.78;69.94
4392;BME280;2210;51.938;8.488;2023-03-18T14:57:43;100018.63;;;15.79;70.06
4392;BME280;2210;51.938;8.488;2023-03-18T15:01:45;100015.81;;;15.90;71.75
4392;BME280;2210;51.938;8.488;2023-03-18T15:06:02;100006.81;;;16.08;68.50
4392;BME280;2210;51.938;8.488;2023-03-18T15:10:13;100005.16;;;16.07;68.01
4392;BME280;2210;51.938;8.488;2023-03-18T15:14:30;100001.38;;;15.88;67.99
4392;BME280;2210;51.938;8.488;2023-03-18T15:18:33;100001.34;;;15.98;68.85
4392;BME280;2210;51.938;8.488;2023-03-18T15:22:36;99995.25;;;15.91;69.58
4392;BME280;2210;51.938;8.488;2023-03-18T15:26:41;99989.16;;;15.83;69.37
4392;BME280;2210;51.938;8.488;2023-03-18T15:30:55;99989.16;;;15.78;69.03
4392;BME280;2210;51.938;8.488;2023-03-18T15:35:13;99980.81;;;15.78;68.66
4392;BME280;2210;51.938;8.488;2023-03-18T15:39:38;99991.41;;;15.76;69.83
4392;BME280;2210;51.938;8.488;2023-03-18T15:43:41;99989.47;;;15.66;69.39
4392;BME280;2210;51.938;8.488;2023-03-18T15:47:42;99999.84;;;15.50;72.98
4392;BME280;2210;51.938;8.488;2023-03-18T15:51:46;99993.13;;;15.57;71.54
4392;BME280;2210;51.938;8.488;2023-03-18T15:55:54;100007.03;;;15.57;72.00
4392;BME280;2210;51.938;8.488;2023-03-18T15:59:55;99995.34;;;15.60;71.27
4392;BME280;2210;51.938;8.488;2023-03-18T16:03:55;99990.88;;;15.69;70.69
4392;BME280;2210;51.938;8.488;2023-03-18T16:07:58;99995.03;;;15.66;71.89
4392;BME280;2210;51.938;8.488;2023-03-18T16:12:25;99995.34;;;15.60;71.25
4392;BME280;2210;51.938;8.488;2023-03-18T16:16:31;99987.28;;;15.58;72.21
4392;BME280;2210;51.938;8.488;2023-03-18T16:20:33;99987.00;;;15.60;72.06
4392;BME280;2210;51.938;8.488;2023-03-18T16:24:42;99990.38;;;15.57;73.27
4392;BME280;2210;51.938;8.488;2023-03-18T16:28:46;99996.50;;;15.48;73.64
4392;BME280;2210;51.938;8.488;2023-03-18T16:32:47;99987.91;;;15.45;73.69
4392;BME280;2210;51.938;8.488;2023-03-18T16:36:49;99987.09;;;15.34;74.34
4392;BME280;2210;51.938;8.488;2023-03-18T16:40:51;99987.66;;;15.36;74.33
4392;BME280;2210;51.938;8.488;2023-03-18T16:44:51;99984.91;;;15.31;74.86
4392;BME280;2210;51.938;8.488;2023-03-18T16:48:52;99978.81;;;15.29;75.46
4392;BME280;2210;51.938;8.488;2023-03-18T16:52:59;99979.41;;;15.15;76.63
4392;BME280;2210;51.938;8.488;2023-03-18T16:57:01;99986.06;;;15.09;77.68
4392;BME280;2210;51.938;8.488;2023-03-18T17:01:04;99978.59;;;15.05;77.81
4392;BME280;2210;51.938;8.488;2023-03-18T17:05:13;99984.44;;;15.03;78.48
4392;BME280;2210;51.938;8.488;2023-03-18T17:09:13;99998.31;;;14.98;78.99
4392;BME280;2210;51.938;8.488;2023-03-18T17:13:19;99997.22;;;14.99;78.26
4392;BME280;2210;51.938;8.488;2023-03-18T17:17:27;100005.25;;;15.00;79.04
4392;BME280;2210;51.938;8.488;2023-03-18T17:21:28;100011.09;;;14.94;79.26
4392;BME280;2210;51.938;8.488;2023-03-18T17:25:29;100018.31;;;14.84;79.45
4392;BME280;2210;51.938;8.488;2023-03-18T17:29:33;100025.53;;;14.75;81.92
4392;BME280;2210;51.938;8.488;2023-03-18T17:33:37;100051.63;;;14.64;85.22
4392;BME280;2210;51.938;8.488;2023-03-18T17:37:37;100073.19;;;14.62;87.24
4392;BME280;2210;51.938;8.488;2023-03-18T17:41:38;100086.75;;;14.27;99.34
4392;BME280;2210;51.938;8.488;2023-03-18T17:45:38;100090.81;;;13.99;100.00
4392;BME280;2210;51.938;8.488;2023-03-18T17:49:41;100090.66;;;13.68;100.00
4392;BME280;2210;51.938;8.488;2023-03-18T17:53:47;100098.66;;;13.59;100.00
4392;BME280;2210;51.938;8.488;2023-03-18T17:57:54;100099.91;;;13.41;100.00
4392;BME280;2210;51.938;8.488;2023-03-18T18:01:54;100103.34;;;13.21;100.00
4392;BME280;2210;51.938;8.488;2023-03-18T18:05:55;100111.31;;;13.12;100.00
4392;BME280;2210;51.938;8.488;2023-03-18T18:09:59;100106.00;;;13.06;100.00
4392;BME280;2210;51.938;8.488;2023-03-18T18:14:08;100106.22;;;12.99;100.00
4392;BME280;2210;51.938;8.488;2023-03-18T18:18:18;100105.38;;;12.98;100.00
4392;BME280;2210;51.938;8.488;2023-03-18T18:22:25;100106.75;;;12.96;100.00
4392;BME280;2210;51.938;8.488;2023-03-18T18:26:29;100108.28;;;12.81;100.00
4392;BME280;2210;51.938;8.488;2023-03-18T18:30:29;100100.56;;;12.84;100.00
4392;BME280;2210;51.938;8.488;2023-03-18T18:34:31;100109.22;;;12.65;100.00
4392;BME280;2210;51.938;8.488;2023-03-18T18:38:31;100107.34;;;12.71;100.00
4392;BME280;2210;51.938;8.488;2023-03-18T18:42:32;100110.75;;;12.78;100.00
4392;BME280;2210;51.938;8.488;2023-03-18T18:46:38;100112.09;;;12.75;100.00
4392;BME280;2210;51.938;8.488;2023-03-18T18:50:39;100111.47;;;12.68;100.00
4392;BME280;2210;51.938;8.488;2023-03-18T18:54:40;100109.84;;;12.72;100.00
4392;BME280;2210;51.938;8.488;2023-03-18T18:58:40;100124.31;;;12.79;100.00
4392;BME280;2210;51.938;8.488;2023-03-18T19:02:41;100106.19;;;12.67;100.00
4392;BME280;2210;51.938;8.488;2023-03-18T19:06:42;100105.25;;;12.56;100.00
4392;BME280;2210;51.938;8.488;2023-03-18T19:10:43;100113.25;;;12.52;100.00
4392;BME280;2210;51.938;8.488;2023-03-18T19:14:43;100109.91;;;12.50;100.00
4392;BME280;2210;51.938;8.488;2023-03-18T19:18:47;100111.38;;;12.58;100.00
4392;BME280;2210;51.938;8.488;2023-03-18T19:22:48;100118.47;;;12.48;100.00
4392;BME280;2210;51.938;8.488;2023-03-18T19:26:49;100114.75;;;12.38;100.00
4392;BME280;2210;51.938;8.488;2023-03-18T19:30:59;100112.41;;;12.24;100.00
4392;BME280;2210;51.938;8.488;2023-03-18T19:34:59;100105.50;;;12.27;100.00
4392;BME280;2210;51.938;8.488;2023-03-18T19:39:29;100109.81;;;12.18;100.00
4392;BME280;2210;51.938;8.488;2023-03-18T19:43:33;100106.75;;;12.14;100.00
4392;BME280;2210;51.938;8.488;2023-03-18T19:47:42;100110.91;;;12.17;100.00
4392;BME280;2210;51.938;8.488;2023-03-18T19:51:45;100111.63;;;12.07;100.00
4392;BME280;2210;51.938;8.488;2023-03-18T19:55:46;100113.75;;;12.00;100.00
4392;BME280;2210;51.938;8.488;2023-03-18T19:59:48;100118.38;;;11.94;100.00
4392;BME280;2210;51.938;8.488;2023-03-18T20:03:55;100117.56;;;11.76;100.00
4392;BME280;2210;51.938;8.488;2023-03-18T20:07:56;100123.94;;;11.77;100.00
4392;BME280;2210;51.938;8.488;2023-03-18T20:11:57;100126.13;;;11.75;100.00
4392;BME280;2210;51.938;8.488;2023-03-18T20:16:28;100119.09;;;11.67;100.00
4392;BME280;2210;51.938;8.488;2023-03-18T20:20:32;100119.09;;;11.67;100.00
4392;BME280;2210;51.938;8.488;2023-03-18T20:24:32;100124.81;;;11.60;100.00
4392;BME280;2210;51.938;8.488;2023-03-18T20:28:32;100131.47;;;11.42;100.00
4392;BME280;2210;51.938;8.488;2023-03-18T20:32:33;100133.22;;;11.32;100.00
4392;BME280;2210;51.938;8.488;2023-03-18T20:36:51;100132.63;;;11.29;100.00
4392;BME280;2210;51.938;8.488;2023-03-18T20:40:55;100130.72;;;11.30;100.00
4392;BME280;2210;51.938;8.488;2023-03-18T20:44:55;100130.78;;;11.35;100.00
4392;BME280;2210;51.938;8.488;2023-03-18T20:48:55;100122.00;;;11.38;100.00
4392;BME280;2210;51.938;8.488;2023-03-18T20:52:56;100131.72;;;11.41;100.00
4392;BME280;2210;51.938;8.488;2023-03-18T20:57:00;100126.28;;;11.29;100.00
4392;BME280;2210;51.938;8.488;2023-03-18T21:01:05;100122.75;;;11.34;100.00
4392;BME280;2210;51.938;8.488;2023-03-18T21:05:07;100131.53;;;11.30;100.00
4392;BME280;2210;51.938;8.488;2023-03-18T21:09:09;100134.22;;;11.25;100.00
4392;BME280;2210;51.938;8.488;2023-03-18T21:13:34;100130.97;;;11.11;100.00
4392;BME280;2210;51.938;8.488;2023-03-18T21:17:37;100136.31;;;11.01;100.00
4392;BME280;2210;51.938;8.488;2023-03-18T21:21:39;100136.25;;;10.96;100.00
4392;BME280;2210;51.938;8.488;2023-03-18T21:25:40;100136.25;;;10.96;100.00
4392;BME280;2210;51.938;8.488;2023-03-18T21:29:45;100137.41;;;11.00;100.00
4392;BME280;2210;51.938;8.488;2023-03-18T21:33:46;100126.94;;;11.02;100.00
4392;BME280;2210;51.938;8.488;2023-03-18T21:37:48;100118.00;;;10.95;100.00
4392;BME280;2210;51.938;8.488;2023-03-18T21:41:49;100124.25;;;10.90;100.00
4392;BME280;2210;51.938;8.488;2023-03-18T21:45:49;100124.09;;;10.97;100.00
4392;BME280;2210;51.938;8.488;2023-03-18T21:49:50;100137.88;;;10.97;100.00
4392;BME280;2210;51.938;8.488;2023-03-18T21:53:54;100138.31;;;10.89;100.00
4392;BME280;2210;51.938;8.488;2023-03-18T21:57:54;100143.72;;;10.84;100.00
4392;BME280;2210;51.938;8.488;2023-03-18T22:01:54;100140.75;;;10.85;100.00
4392;BME280;2210;51.938;8.488;2023-03-18T22:05:55;100139.53;;;10.81;100.00
4392;BME280;2210;51.938;8.488;2023-03-18T22:09:57;100143.22;;;10.70;100.00
4392;BME280;2210;51.938;8.488;2023-03-18T22:13:57;100137.03;;;10.62;100.00
4392;BME280;2210;51.938;8.488;2023-03-18T22:17:57;100137.75;;;10.58;100.00
4392;BME280;2210;51.938;8.488;2023-03-18T22:21:57;100132.69;;;10.38;100.00
4392;BME280;2210;51.938;8.488;2023-03-18T22:26:00;100133.06;;;10.29;100.00
4392;BME280;2210;51.938;8.488;2023-03-18T22:30:01;100133.78;;;10.25;100.00
4392;BME280;2210;51.938;8.488;2023-03-18T22:34:24;100136.44;;;10.20;100.00
4392;BME280;2210;51.938;8.488;2023-03-18T22:38:27;100138.59;;;10.18;100.00
4392;BME280;2210;51.938;8.488;2023-03-18T22:42:36;100130.38;;;10.06;100.00
4392;BME280;2210;51.938;8.488;2023-03-18T22:46:40;100147.72;;;10.06;100.00
4392;BME280;2210;51.938;8.488;2023-03-18T22:50:40;100146.47;;;9.97;100.00
4392;BME280;2210;51.938;8.488;2023-03-18T22:54:44;100142.53;;;9.81;100.00
4392;BME280;2210;51.938;8.488;2023-03-18T22:58:44;100140.03;;;9.79;100.00
4392;BME280;2210;51.938;8.488;2023-03-18T23:02:51;100139.78;;;9.81;100.00
4392;BME280;2210;51.938;8.488;2023-03-18T23:06:53;100137.66;;;9.71;100.00
4392;BME280;2210;51.938;8.488;2023-03-18T23:11:00;100131.78;;;9.68;100.00